sensor_id;sensor_type;location;lat;lon;timestamp;pressure;altitude;pressure_sealevel;temperature;humidity
50710;BME280;37033;49.994;21.992;2023-01-30T00:01:22;99462.75;;;-2.60;81.47
50710;BME280;37033;49.994;21.992;2023-01-30T00:04:13;99460.63;;;-2.60;81.56
50710;BME280;37033;49.994;21.992;2023-01-30T00:07:03;99457.17;;;-2.59;81.59
50710;BME280;37033;49.994;21.992;2023-01-30T00:09:53;99449.15;;;-2.59;81.87
50710;BME280;37033;49.994;21.992;2023-01-30T00:12:42;99447.98;;;-2.60;81.75
50710;BME280;37033;49.994;21.992;2023-01-30T00:15:32;99443.06;;;-2.60;81.85
50710;BME280;37033;49.994;21.992;2023-01-30T00:18:22;99437.77;;;-2.60;81.99
50710;BME280;37033;49.994;21.992;2023-01-30T00:21:12;99438.61;;;-2.62;82.17
50710;BME280;37033;49.994;21.992;2023-01-30T00:24:02;99433.75;;;-2.63;82.40
50710;BME280;37033;49.994;21.992;2023-01-30T00:26:52;99426.53;;;-2.63;82.41
50710;BME280;37033;49.994;21.992;2023-01-30T00:29:41;99423.14;;;-2.63;82.44
50710;BME280;37033;49.994;21.992;2023-01-30T00:32:31;99418.65;;;-2.63;82.43
50710;BME280;37033;49.994;21.992;2023-01-30T00:35:21;99412.81;;;-2.61;82.57
50710;BME280;37033;49.994;21.992;2023-01-30T00:38:15;99408.46;;;-2.60;82.58
50710;BME280;37033;49.994;21.992;2023-01-30T00:41:06;99403.09;;;-2.60;82.51
50710;BME280;37033;49.994;21.992;2023-01-30T00:43:57;99395.63;;;-2.60;82.45
50710;BME280;37033;49.994;21.992;2023-01-30T00:47:20;99392.27;;;-2.58;82.38
50710;BME280;37033;49.994;21.992;2023-01-30T00:50:11;99388.98;;;-2.57;82.44
50710;BME280;37033;49.994;21.992;2023-01-30T00:53:01;99383.90;;;-2.55;82.47
50710;BME280;37033;49.994;21.992;2023-01-30T00:55:52;99377.98;;;-2.55;82.45
50710;BME280;37033;49.994;21.992;2023-01-30T00:58:42;99373.44;;;-2.54;82.42
50710;BME280;37033;49.994;21.992;2023-01-30T01:01:32;99364.09;;;-2.53;82.36
50710;BME280;37033;49.994;21.992;2023-01-30T01:04:21;99359.73;;;-2.52;82.41
50710;BME280;37033;49.994;21.992;2023-01-30T01:07:12;99350.60;;;-2.51;82.51
50710;BME280;37033;49.994;21.992;2023-01-30T01:10:03;99340.80;;;-2.50;82.40
50710;BME280;37033;49.994;21.992;2023-01-30T01:12:52;99337.56;;;-2.50;82.35
50710;BME280;37033;49.994;21.992;2023-01-30T01:15:42;99332.75;;;-2.50;82.47
50710;BME280;37033;49.994;21.992;2023-01-30T01:18:32;99324.27;;;-2.48;82.53
50710;BME280;37033;49.994;21.992;2023-01-30T01:21:23;99317.88;;;-2.47;82.47
50710;BME280;37033;49.994;21.992;2023-01-30T01:24:14;99318.33;;;-2.44;82.54
50710;BME280;37033;49.994;21.992;2023-01-30T01:27:04;99312.79;;;-2.42;82.54
50710;BME280;37033;49.994;21.992;2023-01-30T01:29:53;99309.92;;;-2.40;82.51
50710;BME280;37033;49.994;21.992;2023-01-30T01:32:43;99301.11;;;-2.39;82.58
50710;BME280;37033;49.994;21.992;2023-01-30T01:35:33;99293.92;;;-2.38;82.66
50710;BME280;37033;49.994;21.992;2023-01-30T01:38:23;99283.98;;;-2.38;82.59
50710;BME280;37033;49.994;21.992;2023-01-30T01:41:14;99272.90;;;-2.37;82.70
50710;BME280;37033;49.994;21.992;2023-01-30T01:44:07;99262.09;;;-2.36;82.82
50710;BME280;37033;49.994;21.992;2023-01-30T01:46:57;99254.77;;;-2.35;82.91
50710;BME280;37033;49.994;21.992;2023-01-30T01:49:48;99248.48;;;-2.35;82.90
50710;BME280;37033;49.994;21.992;2023-01-30T01:52:38;99242.17;;;-2.34;82.90
50710;BME280;37033;49.994;21.992;2023-01-30T01:55:29;99240.30;;;-2.33;82.90
50710;BME280;37033;49.994;21.992;2023-01-30T01:58:23;99233.27;;;-2.32;83.03
50710;BME280;37033;49.994;21.992;2023-01-30T02:01:13;99228.13;;;-2.30;83.10
50710;BME280;37033;49.994;21.992;2023-01-30T02:04:05;99223.77;;;-2.31;82.97
50710;BME280;37033;49.994;21.992;2023-01-30T02:06:57;99216.48;;;-2.31;82.97
50710;BME280;37033;49.994;21.992;2023-01-30T02:09:48;99206.10;;;-2.30;82.95
50710;BME280;37033;49.994;21.992;2023-01-30T02:12:39;99198.11;;;-2.30;82.89
50710;BME280;37033;49.994;21.992;2023-01-30T02:15:29;99192.48;;;-2.30;82.97
50710;BME280;37033;49.994;21.992;2023-01-30T02:18:19;99186.30;;;-2.33;82.97
50710;BME280;37033;49.994;21.992;2023-01-30T02:24:53;99180.08;;;-2.35;82.82
50710;BME280;37033;49.994;21.992;2023-01-30T02:28:13;99174.58;;;-2.37;82.75
50710;BME280;37033;49.994;21.992;2023-01-30T02:31:21;99172.48;;;-2.40;82.68
50710;BME280;37033;49.994;21.992;2023-01-30T02:34:25;99162.09;;;-2.40;82.70
50710;BME280;37033;49.994;21.992;2023-01-30T02:37:28;99157.77;;;-2.41;82.49
50710;BME280;37033;49.994;21.992;2023-01-30T02:40:32;99150.27;;;-2.43;82.52
50710;BME280;37033;49.994;21.992;2023-01-30T02:43:30;99149.35;;;-2.42;82.34
50710;BME280;37033;49.994;21.992;2023-01-30T02:46:25;99149.85;;;-2.43;82.12
50710;BME280;37033;49.994;21.992;2023-01-30T02:49:25;99146.81;;;-2.43;82.00
50710;BME280;37033;49.994;21.992;2023-01-30T02:52:17;99140.63;;;-2.44;82.04
50710;BME280;37033;49.994;21.992;2023-01-30T02:55:18;99134.80;;;-2.44;81.87
50710;BME280;37033;49.994;21.992;2023-01-30T02:58:09;99124.72;;;-2.44;81.36
50710;BME280;37033;49.994;21.992;2023-01-30T03:01:34;99119.73;;;-2.46;81.28
50710;BME280;37033;49.994;21.992;2023-01-30T03:04:40;99100.33;;;-2.47;81.02
50710;BME280;37033;49.994;21.992;2023-01-30T03:07:44;99095.16;;;-2.48;80.90
50710;BME280;37033;49.994;21.992;2023-01-30T03:10:40;99085.75;;;-2.48;80.89
50710;BME280;37033;49.994;21.992;2023-01-30T03:13:40;99080.23;;;-2.48;80.66
50710;BME280;37033;49.994;21.992;2023-01-30T03:16:34;99074.84;;;-2.49;80.36
50710;BME280;37033;49.994;21.992;2023-01-30T03:19:25;99079.98;;;-2.49;80.29
50710;BME280;37033;49.994;21.992;2023-01-30T03:22:15;99077.77;;;-2.50;80.38
50710;BME280;37033;49.994;21.992;2023-01-30T03:25:06;99071.52;;;-2.49;80.30
50710;BME280;37033;49.994;21.992;2023-01-30T03:27:57;99071.86;;;-2.49;80.23
50710;BME280;37033;49.994;21.992;2023-01-30T03:30:47;99069.26;;;-2.50;80.16
50710;BME280;37033;49.994;21.992;2023-01-30T03:33:37;99062.10;;;-2.49;80.10
50710;BME280;37033;49.994;21.992;2023-01-30T03:36:27;99051.56;;;-2.50;79.82
50710;BME280;37033;49.994;21.992;2023-01-30T03:39:17;99045.91;;;-2.50;79.61
50710;BME280;37033;49.994;21.992;2023-01-30T03:42:07;99039.02;;;-2.51;79.68
50710;BME280;37033;49.994;21.992;2023-01-30T03:44:57;99032.10;;;-2.51;79.60
50710;BME280;37033;49.994;21.992;2023-01-30T03:47:47;99026.74;;;-2.50;79.41
50710;BME280;37033;49.994;21.992;2023-01-30T03:50:37;99020.13;;;-2.51;79.23
50710;BME280;37033;49.994;21.992;2023-01-30T03:53:26;99022.83;;;-2.52;79.10
50710;BME280;37033;49.994;21.992;2023-01-30T03:56:16;99010.92;;;-2.52;79.00
50710;BME280;37033;49.994;21.992;2023-01-30T03:59:06;99006.65;;;-2.50;78.84
50710;BME280;37033;49.994;21.992;2023-01-30T04:01:56;99000.42;;;-2.50;78.76
50710;BME280;37033;49.994;21.992;2023-01-30T04:04:46;98998.13;;;-2.50;78.85
50710;BME280;37033;49.994;21.992;2023-01-30T04:07:36;98985.89;;;-2.50;78.68
50710;BME280;37033;49.994;21.992;2023-01-30T04:10:26;98978.31;;;-2.50;78.70
50710;BME280;37033;49.994;21.992;2023-01-30T04:13:16;98969.66;;;-2.51;78.56
50710;BME280;37033;49.994;21.992;2023-01-30T04:16:20;98965.96;;;-2.51;78.45
50710;BME280;37033;49.994;21.992;2023-01-30T04:19:10;98967.67;;;-2.52;78.49
50710;BME280;37033;49.994;21.992;2023-01-30T04:22:00;98960.19;;;-2.53;78.33
50710;BME280;37033;49.994;21.992;2023-01-30T04:24:49;98954.07;;;-2.55;78.09
50710;BME280;37033;49.994;21.992;2023-01-30T04:27:39;98955.23;;;-2.59;78.14
50710;BME280;37033;49.994;21.992;2023-01-30T04:30:28;98956.19;;;-2.61;78.34
50710;BME280;37033;49.994;21.992;2023-01-30T04:33:19;98949.78;;;-2.62;78.32
50710;BME280;37033;49.994;21.992;2023-01-30T04:36:10;98946.05;;;-2.64;78.39
50710;BME280;37033;49.994;21.992;2023-01-30T04:39:01;98939.66;;;-2.66;78.39
50710;BME280;37033;49.994;21.992;2023-01-30T04:41:50;98934.24;;;-2.66;78.53
50710;BME280;37033;49.994;21.992;2023-01-30T04:44:40;98928.86;;;-2.67;78.47
50710;BME280;37033;49.994;21.992;2023-01-30T04:47:29;98922.08;;;-2.70;78.44
50710;BME280;37033;49.994;21.992;2023-01-30T04:50:19;98923.67;;;-2.72;78.53
50710;BME280;37033;49.994;21.992;2023-01-30T04:53:09;98917.91;;;-2.73;78.56
50710;BME280;37033;49.994;21.992;2023-01-30T04:55:59;98912.60;;;-2.74;78.62
50710;BME280;37033;49.994;21.992;2023-01-30T04:58:49;98917.45;;;-2.76;78.82
50710;BME280;37033;49.994;21.992;2023-01-30T05:01:39;98913.48;;;-2.77;78.92
50710;BME280;37033;49.994;21.992;2023-01-30T05:04:29;98914.27;;;-2.78;78.91
50710;BME280;37033;49.994;21.992;2023-01-30T05:07:19;98911.55;;;-2.79;78.84
50710;BME280;37033;49.994;21.992;2023-01-30T05:10:10;98909.65;;;-2.80;78.95
50710;BME280;37033;49.994;21.992;2023-01-30T05:13:04;98906.52;;;-2.82;79.06
50710;BME280;37033;49.994;21.992;2023-01-30T05:15:54;98908.45;;;-2.82;79.09
50710;BME280;37033;49.994;21.992;2023-01-30T05:18:43;98907.83;;;-2.82;79.09
50710;BME280;37033;49.994;21.992;2023-01-30T05:21:33;98908.35;;;-2.83;79.09
50710;BME280;37033;49.994;21.992;2023-01-30T05:24:23;98906.90;;;-2.82;78.95
50710;BME280;37033;49.994;21.992;2023-01-30T05:27:13;98903.33;;;-2.82;79.15
50710;BME280;37033;49.994;21.992;2023-01-30T05:30:03;98898.55;;;-2.82;79.16
50710;BME280;37033;49.994;21.992;2023-01-30T05:32:52;98884.88;;;-2.82;79.11
50710;BME280;37033;49.994;21.992;2023-01-30T05:35:47;98878.89;;;-2.82;79.12
50710;BME280;37033;49.994;21.992;2023-01-30T05:38:37;98868.42;;;-2.82;79.25
50710;BME280;37033;49.994;21.992;2023-01-30T05:41:26;98854.30;;;-2.81;79.20
50710;BME280;37033;49.994;21.992;2023-01-30T05:44:17;98849.97;;;-2.80;79.11
50710;BME280;37033;49.994;21.992;2023-01-30T05:47:06;98852.83;;;-2.81;79.19
50710;BME280;37033;49.994;21.992;2023-01-30T05:49:56;98847.82;;;-2.78;79.11
50710;BME280;37033;49.994;21.992;2023-01-30T05:52:46;98847.59;;;-2.77;79.07
50710;BME280;37033;49.994;21.992;2023-01-30T05:55:36;98848.40;;;-2.76;78.97
50710;BME280;37033;49.994;21.992;2023-01-30T05:58:25;98850.98;;;-2.73;78.91
50710;BME280;37033;49.994;21.992;2023-01-30T06:01:15;98850.98;;;-2.72;78.89
50710;BME280;37033;49.994;21.992;2023-01-30T06:04:06;98851.98;;;-2.71;78.91
50710;BME280;37033;49.994;21.992;2023-01-30T06:06:56;98859.79;;;-2.70;78.91
50710;BME280;37033;49.994;21.992;2023-01-30T06:09:45;98861.35;;;-2.68;79.03
50710;BME280;37033;49.994;21.992;2023-01-30T06:12:35;98859.23;;;-2.66;78.92
50710;BME280;37033;49.994;21.992;2023-01-30T06:15:24;98862.37;;;-2.64;78.97
50710;BME280;37033;49.994;21.992;2023-01-30T06:18:14;98864.67;;;-2.63;78.90
50710;BME280;37033;49.994;21.992;2023-01-30T06:21:04;98861.74;;;-2.60;78.88
50710;BME280;37033;49.994;21.992;2023-01-30T06:23:54;98867.00;;;-2.57;78.72
50710;BME280;37033;49.994;21.992;2023-01-30T06:26:44;98857.20;;;-2.56;78.63
50710;BME280;37033;49.994;21.992;2023-01-30T06:29:33;98861.11;;;-2.54;78.75
50710;BME280;37033;49.994;21.992;2023-01-30T06:32:22;98854.66;;;-2.54;78.67
50710;BME280;37033;49.994;21.992;2023-01-30T06:35:12;98855.33;;;-2.52;78.64
50710;BME280;37033;49.994;21.992;2023-01-30T06:38:02;98852.50;;;-2.50;78.55
50710;BME280;37033;49.994;21.992;2023-01-30T06:40:51;98843.11;;;-2.49;78.57
50710;BME280;37033;49.994;21.992;2023-01-30T06:43:41;98836.61;;;-2.48;78.53
50710;BME280;37033;49.994;21.992;2023-01-30T06:46:31;98838.58;;;-2.46;78.64
50710;BME280;37033;49.994;21.992;2023-01-30T06:49:21;98828.50;;;-2.45;78.53
50710;BME280;37033;49.994;21.992;2023-01-30T06:52:10;98824.20;;;-2.45;78.51
50710;BME280;37033;49.994;21.992;2023-01-30T06:55:00;98829.95;;;-2.44;78.49
50710;BME280;37033;49.994;21.992;2023-01-30T06:57:59;98815.75;;;-2.42;78.50
50710;BME280;37033;49.994;21.992;2023-01-30T07:00:49;98810.55;;;-2.40;78.44
50710;BME280;37033;49.994;21.992;2023-01-30T07:03:39;98811.17;;;-2.37;78.31
50710;BME280;37033;49.994;21.992;2023-01-30T07:06:29;98800.40;;;-2.35;78.17
50710;BME280;37033;49.994;21.992;2023-01-30T07:09:19;98801.14;;;-2.33;78.08
50710;BME280;37033;49.994;21.992;2023-01-30T07:12:09;98802.75;;;-2.31;77.96
50710;BME280;37033;49.994;21.992;2023-01-30T07:14:59;98801.56;;;-2.28;77.78
50710;BME280;37033;49.994;21.992;2023-01-30T07:17:48;98798.64;;;-2.26;77.57
50710;BME280;37033;49.994;21.992;2023-01-30T07:20:38;98791.59;;;-2.23;77.63
50710;BME280;37033;49.994;21.992;2023-01-30T07:23:29;98782.41;;;-2.20;77.67
50710;BME280;37033;49.994;21.992;2023-01-30T07:26:18;98785.29;;;-2.17;77.30
50710;BME280;37033;49.994;21.992;2023-01-30T07:29:08;98781.05;;;-2.14;77.10
50710;BME280;37033;49.994;21.992;2023-01-30T07:31:58;98772.93;;;-2.12;76.95
50710;BME280;37033;49.994;21.992;2023-01-30T07:34:48;98773.15;;;-2.07;77.06
50710;BME280;37033;49.994;21.992;2023-01-30T07:37:37;98764.45;;;-2.04;76.97
50710;BME280;37033;49.994;21.992;2023-01-30T07:40:27;98746.66;;;-2.01;76.55
50710;BME280;37033;49.994;21.992;2023-01-30T07:43:17;98739.87;;;-1.97;76.06
50710;BME280;37033;49.994;21.992;2023-01-30T07:46:08;98732.79;;;-1.96;76.10
50710;BME280;37033;49.994;21.992;2023-01-30T07:48:58;98718.32;;;-1.94;76.17
50710;BME280;37033;49.994;21.992;2023-01-30T07:51:47;98699.58;;;-1.91;76.13
50710;BME280;37033;49.994;21.992;2023-01-30T07:54:37;98690.54;;;-1.90;75.99
50710;BME280;37033;49.994;21.992;2023-01-30T07:57:28;98689.94;;;-1.88;75.99
50710;BME280;37033;49.994;21.992;2023-01-30T08:00:19;98688.67;;;-1.86;75.83
50710;BME280;37033;49.994;21.992;2023-01-30T08:03:13;98694.95;;;-1.86;75.81
50710;BME280;37033;49.994;21.992;2023-01-30T08:06:03;98694.50;;;-1.83;76.01
50710;BME280;37033;49.994;21.992;2023-01-30T08:08:53;98685.23;;;-1.80;75.58
50710;BME280;37033;49.994;21.992;2023-01-30T08:11:42;98682.57;;;-1.78;75.40
50710;BME280;37033;49.994;21.992;2023-01-30T08:14:32;98669.42;;;-1.76;75.29
50710;BME280;37033;49.994;21.992;2023-01-30T08:17:22;98659.84;;;-1.75;74.79
50710;BME280;37033;49.994;21.992;2023-01-30T08:20:12;98652.57;;;-1.73;74.79
50710;BME280;37033;49.994;21.992;2023-01-30T08:23:04;98649.81;;;-1.71;74.74
50710;BME280;37033;49.994;21.992;2023-01-30T08:25:56;98648.16;;;-1.69;74.41
50710;BME280;37033;49.994;21.992;2023-01-30T08:28:46;98642.02;;;-1.68;74.49
50710;BME280;37033;49.994;21.992;2023-01-30T08:31:36;98641.64;;;-1.67;74.66
50710;BME280;37033;49.994;21.992;2023-01-30T08:34:26;98639.30;;;-1.65;74.38
50710;BME280;37033;49.994;21.992;2023-01-30T08:37:16;98633.39;;;-1.63;74.22
50710;BME280;37033;49.994;21.992;2023-01-30T08:40:09;98634.48;;;-1.61;74.21
50710;BME280;37033;49.994;21.992;2023-01-30T08:42:59;98635.14;;;-1.58;73.94
50710;BME280;37033;49.994;21.992;2023-01-30T08:45:49;98630.96;;;-1.54;73.83
50710;BME280;37033;49.994;21.992;2023-01-30T08:48:41;98641.48;;;-1.50;73.73
50710;BME280;37033;49.994;21.992;2023-01-30T08:51:32;98631.61;;;-1.47;73.32
50710;BME280;37033;49.994;21.992;2023-01-30T08:54:22;98632.29;;;-1.42;73.41
50710;BME280;37033;49.994;21.992;2023-01-30T08:57:12;98620.39;;;-1.37;73.43
50710;BME280;37033;49.994;21.992;2023-01-30T09:00:03;98617.07;;;-1.34;73.26
50710;BME280;37033;49.994;21.992;2023-01-30T09:02:55;98628.94;;;-1.30;73.45
50710;BME280;37033;49.994;21.992;2023-01-30T09:05:45;98639.14;;;-1.28;73.26
50710;BME280;37033;49.994;21.992;2023-01-30T09:08:35;98641.91;;;-1.26;73.19
50710;BME280;37033;49.994;21.992;2023-01-30T09:11:24;98640.39;;;-1.23;72.92
50710;BME280;37033;49.994;21.992;2023-01-30T09:14:14;98620.91;;;-1.23;72.72
50710;BME280;37033;49.994;21.992;2023-01-30T09:17:07;98622.80;;;-1.20;72.86
50710;BME280;37033;49.994;21.992;2023-01-30T09:19:56;98620.96;;;-1.17;73.07
50710;BME280;37033;49.994;21.992;2023-01-30T09:22:46;98604.45;;;-1.14;73.02
50710;BME280;37033;49.994;21.992;2023-01-30T09:25:37;98607.20;;;-1.10;72.64
50710;BME280;37033;49.994;21.992;2023-01-30T09:28:26;98611.27;;;-1.10;72.81
50710;BME280;37033;49.994;21.992;2023-01-30T09:31:19;98607.90;;;-1.09;72.87
50710;BME280;37033;49.994;21.992;2023-01-30T09:34:08;98608.80;;;-1.08;72.95
50710;BME280;37033;49.994;21.992;2023-01-30T09:36:59;98600.52;;;-1.07;73.16
50710;BME280;37033;49.994;21.992;2023-01-30T09:39:50;98595.98;;;-1.03;73.21
50710;BME280;37033;49.994;21.992;2023-01-30T09:43:03;98581.27;;;-0.97;73.18
50710;BME280;37033;49.994;21.992;2023-01-30T09:46:07;98561.48;;;-0.90;72.99
50710;BME280;37033;49.994;21.992;2023-01-30T09:49:07;98557.45;;;-0.85;72.92
50710;BME280;37033;49.994;21.992;2023-01-30T09:52:10;98544.66;;;-0.79;72.20
50710;BME280;37033;49.994;21.992;2023-01-30T09:55:22;98539.42;;;-0.74;71.97
50710;BME280;37033;49.994;21.992;2023-01-30T09:58:17;98535.29;;;-0.68;71.76
50710;BME280;37033;49.994;21.992;2023-01-30T10:01:12;98529.93;;;-0.65;71.52
50710;BME280;37033;49.994;21.992;2023-01-30T10:04:13;98521.92;;;-0.62;71.39
50710;BME280;37033;49.994;21.992;2023-01-30T10:07:14;98504.36;;;-0.63;71.50
50710;BME280;37033;49.994;21.992;2023-01-30T10:10:09;98497.84;;;-0.63;71.53
50710;BME280;37033;49.994;21.992;2023-01-30T10:13:09;98495.65;;;-0.61;71.87
50710;BME280;37033;49.994;21.992;2023-01-30T10:16:08;98495.16;;;-0.55;72.05
50710;BME280;37033;49.994;21.992;2023-01-30T10:19:18;98488.79;;;-0.51;71.77
50710;BME280;37033;49.994;21.992;2023-01-30T10:22:20;98483.69;;;-0.52;71.57
50710;BME280;37033;49.994;21.992;2023-01-30T10:25:23;98477.33;;;-0.51;71.67
50710;BME280;37033;49.994;21.992;2023-01-30T10:28:21;98469.99;;;-0.49;71.27
50710;BME280;37033;49.994;21.992;2023-01-30T10:31:15;98470.59;;;-0.48;71.20
50710;BME280;37033;49.994;21.992;2023-01-30T10:34:11;98456.25;;;-0.48;71.20
50710;BME280;37033;49.994;21.992;2023-01-30T10:37:07;98451.99;;;-0.46;70.79
50710;BME280;37033;49.994;21.992;2023-01-30T10:40:04;98443.46;;;-0.45;70.84
50710;BME280;37033;49.994;21.992;2023-01-30T10:43:05;98444.50;;;-0.43;71.19
50710;BME280;37033;49.994;21.992;2023-01-30T10:46:06;98442.70;;;-0.43;71.20
50710;BME280;37033;49.994;21.992;2023-01-30T10:49:04;98439.77;;;-0.45;71.38
50710;BME280;37033;49.994;21.992;2023-01-30T10:52:00;98438.28;;;-0.45;71.54
50710;BME280;37033;49.994;21.992;2023-01-30T10:55:02;98438.90;;;-0.44;71.66
50710;BME280;37033;49.994;21.992;2023-01-30T10:58:00;98435.05;;;-0.42;71.67
50710;BME280;37033;49.994;21.992;2023-01-30T11:00:57;98425.02;;;-0.40;71.90
50710;BME280;37033;49.994;21.992;2023-01-30T11:03:51;98419.08;;;-0.36;71.80
50710;BME280;37033;49.994;21.992;2023-01-30T11:06:42;98409.15;;;-0.34;71.67
50710;BME280;37033;49.994;21.992;2023-01-30T11:09:45;98407.40;;;-0.31;71.83
50710;BME280;37033;49.994;21.992;2023-01-30T11:12:36;98410.45;;;-0.30;71.71
50710;BME280;37033;49.994;21.992;2023-01-30T11:15:39;98402.29;;;-0.29;71.57
50710;BME280;37033;49.994;21.992;2023-01-30T11:18:29;98400.39;;;-0.28;71.81
50710;BME280;37033;49.994;21.992;2023-01-30T11:21:23;98392.18;;;-0.28;71.50
50710;BME280;37033;49.994;21.992;2023-01-30T11:24:17;98384.16;;;-0.29;71.53
50710;BME280;37033;49.994;21.992;2023-01-30T11:27:15;98371.52;;;-0.29;71.35
50710;BME280;37033;49.994;21.992;2023-01-30T11:30:13;98364.80;;;-0.31;71.45
50710;BME280;37033;49.994;21.992;2023-01-30T11:33:12;98360.77;;;-0.32;71.62
50710;BME280;37033;49.994;21.992;2023-01-30T11:36:05;98351.84;;;-0.34;71.52
50710;BME280;37033;49.994;21.992;2023-01-30T11:38:58;98348.29;;;-0.38;71.93
50710;BME280;37033;49.994;21.992;2023-01-30T11:41:58;98349.75;;;-0.41;71.87
50710;BME280;37033;49.994;21.992;2023-01-30T11:44:57;98351.98;;;-0.46;72.01
50710;BME280;37033;49.994;21.992;2023-01-30T11:47:51;98345.08;;;-0.52;72.15
50710;BME280;37033;49.994;21.992;2023-01-30T11:50:43;98346.66;;;-0.56;72.48
50710;BME280;37033;49.994;21.992;2023-01-30T11:53:37;98341.11;;;-0.58;72.66
50710;BME280;37033;49.994;21.992;2023-01-30T11:56:33;98341.70;;;-0.61;72.51
50710;BME280;37033;49.994;21.992;2023-01-30T11:59:27;98335.40;;;-0.65;72.18
50710;BME280;37033;49.994;21.992;2023-01-30T12:02:22;98334.71;;;-0.68;72.18
50710;BME280;37033;49.994;21.992;2023-01-30T12:05:23;98330.27;;;-0.70;72.13
50710;BME280;37033;49.994;21.992;2023-01-30T12:08:23;98328.79;;;-0.71;71.87
50710;BME280;37033;49.994;21.992;2023-01-30T12:11:27;98322.35;;;-0.71;72.14
50710;BME280;37033;49.994;21.992;2023-01-30T12:14:24;98325.55;;;-0.71;72.37
50710;BME280;37033;49.994;21.992;2023-01-30T12:17:19;98324.26;;;-0.68;72.60
50710;BME280;37033;49.994;21.992;2023-01-30T12:20:16;98325.29;;;-0.66;72.36
50710;BME280;37033;49.994;21.992;2023-01-30T12:23:14;98321.89;;;-0.66;72.67
50710;BME280;37033;49.994;21.992;2023-01-30T12:26:11;98321.70;;;-0.63;72.83
50710;BME280;37033;49.994;21.992;2023-01-30T12:29:06;98316.58;;;-0.62;72.87
50710;BME280;37033;49.994;21.992;2023-01-30T12:32:09;98318.79;;;-0.63;73.15
50710;BME280;37033;49.994;21.992;2023-01-30T12:35:01;98313.27;;;-0.65;73.24
50710;BME280;37033;49.994;21.992;2023-01-30T12:38:00;98313.44;;;-0.69;73.63
50710;BME280;37033;49.994;21.992;2023-01-30T12:41:02;98308.50;;;-0.78;73.82
50710;BME280;37033;49.994;21.992;2023-01-30T12:44:11;98312.66;;;-0.87;74.39
50710;BME280;37033;49.994;21.992;2023-01-30T12:47:18;98313.66;;;-0.92;74.82
50710;BME280;37033;49.994;21.992;2023-01-30T12:50:28;98308.95;;;-0.97;75.62
50710;BME280;37033;49.994;21.992;2023-01-30T12:53:33;98305.34;;;-1.01;75.98
50710;BME280;37033;49.994;21.992;2023-01-30T12:56:50;98300.27;;;-1.00;76.54
50710;BME280;37033;49.994;21.992;2023-01-30T12:59:49;98301.96;;;-1.02;76.82
50710;BME280;37033;49.994;21.992;2023-01-30T13:02:51;98302.88;;;-1.08;77.07
50710;BME280;37033;49.994;21.992;2023-01-30T13:05:49;98299.84;;;-1.17;77.22
50710;BME280;37033;49.994;21.992;2023-01-30T13:08:56;98294.51;;;-1.18;77.48
50710;BME280;37033;49.994;21.992;2023-01-30T13:11:56;98286.21;;;-1.18;77.60
50710;BME280;37033;49.994;21.992;2023-01-30T13:14:54;98286.86;;;-1.19;77.70
50710;BME280;37033;49.994;21.992;2023-01-30T13:17:55;98285.13;;;-1.21;77.82
50710;BME280;37033;49.994;21.992;2023-01-30T13:20:53;98285.15;;;-1.27;77.94
50710;BME280;37033;49.994;21.992;2023-01-30T13:23:52;98279.27;;;-1.28;78.17
50710;BME280;37033;49.994;21.992;2023-01-30T13:26:46;98275.98;;;-1.30;78.34
50710;BME280;37033;49.994;21.992;2023-01-30T13:29:39;98269.39;;;-1.34;78.44
50710;BME280;37033;49.994;21.992;2023-01-30T13:32:36;98266.66;;;-1.37;78.70
50710;BME280;37033;49.994;21.992;2023-01-30T13:35:30;98268.63;;;-1.38;78.75
50710;BME280;37033;49.994;21.992;2023-01-30T13:38:25;98263.52;;;-1.41;78.90
50710;BME280;37033;49.994;21.992;2023-01-30T13:41:18;98266.38;;;-1.42;78.98
50710;BME280;37033;49.994;21.992;2023-01-30T13:44:16;98268.54;;;-1.42;79.21
50710;BME280;37033;49.994;21.992;2023-01-30T13:47:13;98269.85;;;-1.47;79.43
50710;BME280;37033;49.994;21.992;2023-01-30T13:50:25;98270.73;;;-1.50;79.67
50710;BME280;37033;49.994;21.992;2023-01-30T13:53:20;98266.81;;;-1.52;79.96
50710;BME280;37033;49.994;21.992;2023-01-30T13:56:19;98265.85;;;-1.54;79.93
50710;BME280;37033;49.994;21.992;2023-01-30T13:59:24;98262.52;;;-1.56;80.22
50710;BME280;37033;49.994;21.992;2023-01-30T14:02:25;98267.83;;;-1.59;80.47
50710;BME280;37033;49.994;21.992;2023-01-30T14:08:51;98271.92;;;-1.62;80.60
50710;BME280;37033;49.994;21.992;2023-01-30T14:11:57;98265.98;;;-1.63;80.80
50710;BME280;37033;49.994;21.992;2023-01-30T14:15:01;98264.58;;;-1.64;80.71
50710;BME280;37033;49.994;21.992;2023-01-30T14:18:03;98266.41;;;-1.65;80.70
50710;BME280;37033;49.994;21.992;2023-01-30T14:21:13;98264.86;;;-1.65;80.71
50710;BME280;37033;49.994;21.992;2023-01-30T14:24:05;98260.77;;;-1.64;80.85
50710;BME280;37033;49.994;21.992;2023-01-30T14:27:04;98260.32;;;-1.64;80.87
50710;BME280;37033;49.994;21.992;2023-01-30T14:30:37;98261.20;;;-1.66;80.79
50710;BME280;37033;49.994;21.992;2023-01-30T14:33:37;98268.99;;;-1.64;80.80
50710;BME280;37033;49.994;21.992;2023-01-30T14:36:37;98262.48;;;-1.63;81.00
50710;BME280;37033;49.994;21.992;2023-01-30T14:39:39;98265.10;;;-1.66;81.25
50710;BME280;37033;49.994;21.992;2023-01-30T14:42:30;98263.33;;;-1.70;81.57
50710;BME280;37033;49.994;21.992;2023-01-30T14:45:44;98267.23;;;-1.74;81.72
50710;BME280;37033;49.994;21.992;2023-01-30T14:48:40;98281.09;;;-1.77;81.72
50710;BME280;37033;49.994;21.992;2023-01-30T14:51:31;98266.38;;;-1.79;81.95
50710;BME280;37033;49.994;21.992;2023-01-30T14:54:26;98255.04;;;-1.81;82.09
50710;BME280;37033;49.994;21.992;2023-01-30T14:57:24;98243.54;;;-1.83;82.27
50710;BME280;37033;49.994;21.992;2023-01-30T15:00:24;98257.20;;;-1.85;82.42
50710;BME280;37033;49.994;21.992;2023-01-30T15:03:20;98263.48;;;-1.86;82.30
50710;BME280;37033;49.994;21.992;2023-01-30T15:06:10;98261.14;;;-1.84;82.37
50710;BME280;37033;49.994;21.992;2023-01-30T15:09:00;98267.80;;;-1.86;82.32
50710;BME280;37033;49.994;21.992;2023-01-30T15:11:55;98271.91;;;-1.86;82.39
50710;BME280;37033;49.994;21.992;2023-01-30T15:14:56;98276.16;;;-1.86;82.45
50710;BME280;37033;49.994;21.992;2023-01-30T15:18:02;98273.77;;;-1.88;82.63